Kelso, Washington
Current Conditions -  °F | °C
As of 12:55 PM on Thursday 20 Nov 2014 (Local Time) from KKLS Reporting Station
Overcast Overcast  
Wind Chill: 42°   Ceiling: 7500
Heat Index: 46°   Visibility: 10mi
Dew Point: 39°   Wind: 8mph
Humidity: 76%   Direction: 150°SSE
Pressure: 30.02"   Gusts: NA
Location:  46.14°N, 122.89°W
Report Text: KKLS 202055Z 15007KT 10SM FEW025 OVC075 08/04 A3002 RMK AO1 57014
Loading
Personal Weather Stations






























Interactive Weather Map New forecast layout! Learn more

10-Day Weather Forecast

Advertisements
Track Severe Weather on mobile